Time;durP1;ratioP1;P1;durP2;ratioP2;P2;SDS_P1;SDS_P2;PMS_P1;PMS_P2;Temp;Humidity;BMP_temperature;BMP_pressure;BME280_temperature;BME280_humidity;BME280_pressure;Samples;Min_cycle;Max_cycle;Signal;HPM_P1;HPM_P2
2021/12/22 00:02:24;;;;;;;21.17;11.60;;;-4.30;99.90;;;;;;5031009;28;20191;-78
2021/12/22 00:04:50;;;;;;;18.92;12.27;;;-4.30;99.90;;;;;;5031438;28;20187;-78
2021/12/22 00:07:16;;;;;;;16.88;10.60;;;-4.40;99.90;;;;;;5013315;28;20213;-78
2021/12/22 00:09:43;;;;;;;17.20;11.50;;;-4.40;99.90;;;;;;5029618;28;20180;-77
2021/12/22 00:12:10;;;;;;;23.25;13.82;;;-4.40;99.90;;;;;;5031154;28;20475;-79
2021/12/22 00:14:35;;;;;;;20.33;12.38;;;-4.40;99.90;;;;;;5030017;28;20678;-78
2021/12/22 00:17:01;;;;;;;17.93;11.57;;;-4.40;99.90;;;;;;5030659;28;20295;-77
2021/12/22 00:19:27;;;;;;;18.03;11.67;;;-4.50;99.90;;;;;;5029913;28;20215;-78
2021/12/22 00:21:52;;;;;;;22.60;12.40;;;-4.50;99.90;;;;;;5031311;28;20501;-78
2021/12/22 00:24:18;;;;;;;19.87;12.53;;;-4.60;99.90;;;;;;5013872;28;20318;-78
2021/12/22 00:26:44;;;;;;;17.67;10.93;;;-4.60;99.90;;;;;;5031477;28;20291;-77
2021/12/22 00:29:10;;;;;;;18.17;10.90;;;-4.50;99.90;;;;;;5013983;28;20184;-79
2021/12/22 00:31:43;;;;;;;25.77;11.85;;;-4.50;99.90;;;;;;5030108;28;20222;-77
2021/12/22 00:34:16;;;;;;;19.65;12.85;;;-4.40;99.90;;;;;;5032028;28;20625;-78
2021/12/22 00:36:43;;;;;;;22.80;12.48;;;-4.40;99.90;;;;;;5030858;28;20219;-77
2021/12/22 00:39:09;;;;;;;18.23;11.95;;;-4.30;99.90;;;;;;5030926;28;20628;-78
2021/12/22 00:41:35;;;;;;;20.63;12.07;;;-4.30;99.90;;;;;;5030242;28;20184;-78
2021/12/22 00:44:03;;;;;;;20.53;12.93;;;-4.30;99.90;;;;;;5013486;28;20899;-78
2021/12/22 00:46:29;;;;;;;17.35;12.38;;;-4.20;99.90;;;;;;5029713;28;20216;-78
2021/12/22 00:48:54;;;;;;;23.33;13.00;;;-4.10;99.90;;;;;;5031461;28;20266;-77
2021/12/22 00:51:20;;;;;;;28.13;12.80;;;-4.10;99.90;;;;;;5029803;28;20447;-79
2021/12/22 00:53:46;;;;;;;17.10;11.30;;;-4.20;99.90;;;;;;5031023;28;20189;-77
2021/12/22 00:56:14;;;;;;;16.83;11.03;;;-4.20;99.90;;;;;;5013785;28;20471;-78
2021/12/22 00:58:40;;;;;;;18.05;11.90;;;-4.30;99.90;;;;;;5031888;28;20673;-78
2021/12/22 01:01:09;;;;;;;24.00;12.67;;;-4.30;99.90;;;;;;5030322;28;20196;-79
2021/12/22 01:03:35;;;;;;;16.65;11.75;;;-4.20;99.90;;;;;;5029115;28;20707;-77
2021/12/22 01:06:02;;;;;;;16.10;10.85;;;-4.30;99.90;;;;;;5028892;28;20188;-78
2021/12/22 01:08:27;;;;;;;23.95;13.95;;;-4.30;99.90;;;;;;5029561;28;20274;-78
2021/12/22 01:10:53;;;;;;;26.63;13.83;;;-4.20;99.90;;;;;;5029532;28;20231;-78
2021/12/22 01:13:19;;;;;;;18.63;12.50;;;-4.10;99.90;;;;;;5030817;28;20606;-77
2021/12/22 01:15:45;;;;;;;22.93;12.03;;;-4.10;99.90;;;;;;5033215;28;20287;-78
2021/12/22 01:18:17;;;;;;;17.67;11.97;;;-4.10;99.90;;;;;;5032745;28;20227;-81
2021/12/22 01:23:19;;;;;;;17.10;12.07;;;-4.10;99.90;;;;;;5031767;28;20164;-80
2021/12/22 01:25:47;;;;;;;19.40;12.52;;;-4.00;99.90;;;;;;5030246;28;20176;-78
2021/12/22 01:28:14;;;;;;;17.70;10.93;;;-4.00;99.90;;;;;;5031015;28;20594;-80
2021/12/22 01:30:44;;;;;;;21.83;11.30;;;-4.10;99.90;;;;;;5036091;28;20180;-80
2021/12/22 01:33:10;;;;;;;21.25;10.95;;;-4.10;99.90;;;;;;5036431;28;20196;-80
2021/12/22 01:35:37;;;;;;;19.95;11.57;;;-4.10;99.90;;;;;;5037468;28;20677;-79
2021/12/22 01:38:05;;;;;;;19.98;11.23;;;-4.20;99.90;;;;;;5037186;28;20196;-78
2021/12/22 01:40:33;;;;;;;17.00;10.63;;;-4.30;99.90;;;;;;5034286;28;20287;-78
2021/12/22 01:43:01;;;;;;;17.92;10.65;;;-4.30;99.90;;;;;;5034832;28;20567;-78
2021/12/22 01:46:20;;;;;;;17.40;10.70;;;-4.40;99.90;;;;;;5031761;28;20193;-77
2021/12/22 01:49:13;;;;;;;17.90;10.93;;;-4.50;99.90;;;;;;5033402;28;20204;-78
2021/12/22 01:51:57;;;;;;;19.35;11.98;;;-4.60;99.90;;;;;;5014999;28;20203;-78
2021/12/22 01:54:58;;;;;;;16.52;10.43;;;-4.70;99.90;;;;;;5031212;28;20168;-78
2021/12/22 01:57:23;;;;;;;16.98;11.48;;;-4.80;99.90;;;;;;5020067;28;20282;-78
2021/12/22 01:59:50;;;;;;;19.93;11.73;;;-4.70;99.90;;;;;;5032531;28;20180;-78
2021/12/22 02:02:16;;;;;;;19.40;11.68;;;-4.70;99.90;;;;;;5031416;28;20188;-78
2021/12/22 02:04:42;;;;;;;18.35;12.15;;;-4.60;99.90;;;;;;5031547;28;20185;-78
2021/12/22 02:07:09;;;;;;;18.05;11.50;;;-4.60;99.90;;;;;;5015410;28;20200;-78
2021/12/22 02:12:01;;;;;;;17.85;11.30;;;-4.70;99.90;;;;;;5033123;28;20182;-78
2021/12/22 02:14:27;;;;;;;19.33;11.43;;;-4.70;99.90;;;;;;5031668;28;20192;-79
2021/12/22 02:16:53;;;;;;;20.13;12.50;;;-4.70;99.90;;;;;;5031469;28;20212;-78
2021/12/22 02:19:19;;;;;;;21.33;11.80;;;-4.80;99.90;;;;;;5033568;28;20180;-78
2021/12/22 02:21:51;;;;;;;24.23;11.60;;;-4.90;99.90;;;;;;5033364;28;20442;-78
2021/12/22 02:24:16;;;;;;;21.20;12.20;;;-4.60;99.90;;;;;;5032103;28;20639;-78
2021/12/22 02:26:50;;;;;;;20.13;11.47;;;-4.80;99.90;;;;;;5031878;28;20304;-77
2021/12/22 02:29:34;;;;;;;19.23;12.27;;;-4.70;99.90;;;;;;5033307;28;20168;-78
2021/12/22 02:32:07;;;;;;;22.00;13.05;;;-4.70;99.90;;;;;;5033834;28;20211;-78
2021/12/22 02:34:45;;;;;;;17.92;11.50;;;-4.60;99.90;;;;;;5017110;28;20165;-78
2021/12/22 02:37:16;;;;;;;20.25;11.48;;;-4.50;99.90;;;;;;5032974;28;20235;-80
2021/12/22 02:39:47;;;;;;;20.52;12.82;;;-4.50;99.90;;;;;;5033216;28;20660;-79
2021/12/22 02:42:13;;;;;;;24.10;13.20;;;-4.50;99.90;;;;;;5035120;28;20183;-79
2021/12/22 02:44:39;;;;;;;21.00;13.30;;;-4.50;99.90;;;;;;5033270;28;20187;-78
2021/12/22 02:47:23;;;;;;;20.63;12.77;;;-4.50;99.90;;;;;;5033660;28;20205;-79
2021/12/22 02:49:49;;;;;;;21.77;12.50;;;-4.50;99.90;;;;;;5035034;28;20188;-78
2021/12/22 02:52:16;;;;;;;22.03;14.27;;;-4.40;99.90;;;;;;5033858;28;20208;-80
2021/12/22 02:54:54;;;;;;;25.45;12.45;;;-4.40;99.90;;;;;;5000866;28;20427;-79
2021/12/22 02:57:35;;;;;;;19.52;11.93;;;-4.40;99.90;;;;;;5033527;28;20256;-79
2021/12/22 03:00:27;;;;;;;21.48;12.63;;;-4.50;99.90;;;;;;5018858;28;20612;-79
2021/12/22 03:03:06;;;;;;;25.60;12.57;;;-4.50;99.90;;;;;;5032670;28;20275;-78
2021/12/22 03:05:33;;;;;;;23.60;13.45;;;-4.50;99.90;;;;;;5030438;28;20177;-78
2021/12/22 03:07:59;;;;;;;24.52;14.68;;;-4.50;99.90;;;;;;5013110;28;20270;-77
2021/12/22 03:10:28;;;;;;;23.93;13.40;;;-4.40;99.90;;;;;;5030708;28;20176;-77
2021/12/22 03:13:01;;;;;;;23.58;13.75;;;-4.40;99.90;;;;;;5030804;28;20192;-77
2021/12/22 03:15:26;;;;;;;24.20;14.43;;;-4.40;99.90;;;;;;5033260;28;20621;-78
2021/12/22 03:17:52;;;;;;;26.07;14.80;;;-4.40;99.90;;;;;;5015692;28;20300;-79
2021/12/22 03:20:18;;;;;;;21.40;13.80;;;-4.30;99.90;;;;;;5034448;28;20188;-79
2021/12/22 03:22:47;;;;;;;26.47;13.40;;;-4.20;99.90;;;;;;5016214;28;20438;-78
2021/12/22 03:25:16;;;;;;;22.33;13.32;;;-4.10;99.90;;;;;;5034703;28;20502;-79
2021/12/22 03:27:49;;;;;;;19.38;12.73;;;-4.00;99.90;;;;;;5029746;28;20204;-77
2021/12/22 03:30:19;;;;;;;28.58;14.02;;;-3.90;99.90;;;;;;5030634;28;20180;-77
2021/12/22 03:32:45;;;;;;;22.50;13.43;;;-4.00;99.90;;;;;;5030483;28;20184;-78
2021/12/22 03:35:19;;;;;;;18.10;12.83;;;-4.00;99.90;;;;;;5028989;28;20177;-77
2021/12/22 03:37:49;;;;;;;21.92;12.98;;;-4.00;99.90;;;;;;5028855;28;20219;-77
2021/12/22 03:40:15;;;;;;;20.05;13.13;;;-4.20;99.90;;;;;;5030077;28;20230;-77
2021/12/22 03:42:41;;;;;;;19.98;13.18;;;-4.30;99.90;;;;;;5029833;28;20195;-77
2021/12/22 03:45:07;;;;;;;21.17;13.37;;;-4.40;99.90;;;;;;5029847;28;20637;-78
2021/12/22 03:47:32;;;;;;;21.40;13.80;;;-4.40;99.90;;;;;;5030062;28;20211;-77
2021/12/22 03:49:58;;;;;;;18.60;11.90;;;-4.40;99.90;;;;;;5030843;28;20184;-77
2021/12/22 03:52:24;;;;;;;20.57;13.20;;;-4.50;99.90;;;;;;5013007;28;20189;-80
2021/12/22 03:54:54;;;;;;;23.00;12.20;;;-4.50;99.90;;;;;;5012725;28;20657;-77
2021/12/22 03:57:20;;;;;;;25.52;14.23;;;-4.50;99.90;;;;;;5029854;28;20303;-77
2021/12/22 03:59:46;;;;;;;20.97;14.00;;;-4.50;99.90;;;;;;5031528;28;20711;-77
2021/12/22 04:02:12;;;;;;;23.83;14.23;;;-4.50;99.90;;;;;;5028646;28;20412;-77
2021/12/22 04:04:38;;;;;;;25.67;14.13;;;-4.70;99.90;;;;;;5030561;28;20218;-78
2021/12/22 04:07:04;;;;;;;21.10;13.43;;;-4.70;99.90;;;;;;5029249;28;20220;-77
2021/12/22 04:09:30;;;;;;;22.03;12.47;;;-4.80;99.90;;;;;;5029140;28;20188;-76
2021/12/22 04:11:56;;;;;;;20.30;13.00;;;-4.90;99.90;;;;;;5028988;28;21019;-77
2021/12/22 04:14:21;;;;;;;25.43;14.03;;;-4.90;99.90;;;;;;5031648;28;20546;-78
2021/12/22 04:16:47;;;;;;;20.67;12.67;;;-4.80;99.90;;;;;;5031607;28;20548;-78
2021/12/22 04:19:13;;;;;;;23.10;14.03;;;-4.90;99.90;;;;;;5031148;28;20183;-79
2021/12/22 04:21:38;;;;;;;27.67;13.27;;;-4.90;99.90;;;;;;5030834;28;20717;-77
2021/12/22 04:24:06;;;;;;;23.03;13.80;;;-4.80;99.90;;;;;;5029667;28;20183;-78
2021/12/22 04:26:32;;;;;;;25.42;14.20;;;-4.90;99.90;;;;;;5029398;28;20184;-77
2021/12/22 04:28:59;;;;;;;23.02;14.20;;;-4.90;99.90;;;;;;4996592;28;20258;-77
2021/12/22 04:31:24;;;;;;;23.88;13.70;;;-4.90;99.90;;;;;;5028679;28;20191;-77
2021/12/22 04:33:50;;;;;;;24.70;13.60;;;-5.00;99.90;;;;;;5029027;28;20815;-77
2021/12/22 04:36:16;;;;;;;23.23;12.53;;;-5.00;99.90;;;;;;5028559;28;20618;-77
2021/12/22 04:38:42;;;;;;;24.83;13.43;;;-5.00;99.90;;;;;;5028876;28;20477;-78
2021/12/22 04:41:08;;;;;;;22.27;12.60;;;-5.10;99.90;;;;;;5030687;28;20176;-78
2021/12/22 04:43:34;;;;;;;19.93;13.40;;;-5.10;99.90;;;;;;5030306;28;20603;-77
2021/12/22 04:45:59;;;;;;;21.17;12.17;;;-5.20;99.90;;;;;;5029215;28;20188;-79
2021/12/22 04:48:25;;;;;;;21.17;12.47;;;-5.30;99.90;;;;;;5031001;28;20208;-79
2021/12/22 04:50:51;;;;;;;21.47;12.03;;;-5.30;99.90;;;;;;4995565;28;20315;-77
2021/12/22 04:53:22;;;;;;;20.63;13.10;;;-5.30;99.90;;;;;;5012497;28;20184;-77
2021/12/22 04:55:48;;;;;;;24.58;13.15;;;-5.30;99.90;;;;;;5028125;28;20462;-78
2021/12/22 04:58:16;;;;;;;24.10;13.70;;;-5.40;99.90;;;;;;5027401;28;20200;-78
2021/12/22 05:00:42;;;;;;;26.30;13.60;;;-5.30;99.90;;;;;;5028905;28;20203;-77
2021/12/22 05:03:08;;;;;;;24.60;14.50;;;-5.30;99.90;;;;;;5012524;28;20173;-77
2021/12/22 05:05:33;;;;;;;27.20;14.53;;;-5.30;99.90;;;;;;5031844;28;20664;-77
2021/12/22 05:08:00;;;;;;;22.33;13.97;;;-5.30;99.90;;;;;;5032070;28;20210;-77
2021/12/22 05:10:27;;;;;;;23.20;14.02;;;-5.30;99.90;;;;;;5033985;28;20369;-78
2021/12/22 05:12:53;;;;;;;23.52;13.10;;;-5.40;99.90;;;;;;5031775;28;20176;-78
2021/12/22 05:15:21;;;;;;;23.40;13.65;;;-5.40;99.90;;;;;;5033420;28;20254;-77
2021/12/22 05:18:12;;;;;;;26.30;13.98;;;-5.40;99.90;;;;;;5032652;28;20245;-79
2021/12/22 05:20:35;;;;;;;26.02;13.80;;;-5.60;99.90;;;;;;5033420;28;20180;-77
2021/12/22 05:23:00;;;;;;;22.73;13.03;;;-5.60;99.90;;;;;;5032318;28;20183;-77
2021/12/22 05:25:26;;;;;;;20.47;12.77;;;-5.50;99.90;;;;;;5032435;28;20545;-77
2021/12/22 05:27:52;;;;;;;23.13;13.67;;;-5.60;99.90;;;;;;5014493;28;20197;-77
2021/12/22 05:30:17;;;;;;;24.83;13.50;;;-5.60;99.90;;;;;;5030731;28;20180;-77
2021/12/22 05:32:43;;;;;;;22.63;12.43;;;-5.50;99.90;;;;;;5030979;28;20934;-77
2021/12/22 05:35:10;;;;;;;21.53;12.30;;;-5.50;99.90;;;;;;5014851;28;20187;-77
2021/12/22 05:37:37;;;;;;;26.63;12.80;;;-5.50;99.90;;;;;;5032285;28;20303;-77
2021/12/22 05:40:05;;;;;;;21.08;13.20;;;-5.50;99.90;;;;;;5032771;28;20532;-77
2021/12/22 05:42:30;;;;;;;31.05;16.80;;;-5.40;99.90;;;;;;5032694;28;20660;-79
2021/12/22 05:44:56;;;;;;;23.87;13.00;;;-5.40;99.90;;;;;;5015696;28;20203;-78
2021/12/22 05:47:22;;;;;;;27.20;15.10;;;-5.50;99.90;;;;;;5031815;28;20216;-78
2021/12/22 05:49:49;;;;;;;19.10;12.87;;;-5.50;99.90;;;;;;5015146;28;20736;-78
2021/12/22 05:52:15;;;;;;;27.55;14.10;;;-5.50;99.90;;;;;;5031904;28;20210;-78
2021/12/22 05:54:40;;;;;;;22.63;12.17;;;-5.50;99.90;;;;;;5033491;28;20649;-77
2021/12/22 05:57:09;;;;;;;25.80;13.07;;;-5.50;99.90;;;;;;5015437;28;20954;-77
2021/12/22 05:59:35;;;;;;;21.98;13.18;;;-5.50;99.90;;;;;;5031065;28;20180;-77
2021/12/22 06:02:00;;;;;;;23.73;14.30;;;-5.40;99.90;;;;;;5032156;28;20179;-77
2021/12/22 06:04:26;;;;;;;22.27;13.63;;;-5.40;99.90;;;;;;5030761;28;20283;-77
2021/12/22 06:06:52;;;;;;;21.10;13.87;;;-5.30;99.90;;;;;;5030729;28;20291;-77
2021/12/22 06:09:17;;;;;;;30.93;14.73;;;-5.20;99.90;;;;;;5031927;28;20263;-77
2021/12/22 06:11:43;;;;;;;27.10;15.03;;;-5.20;99.90;;;;;;5030988;28;20222;-77
2021/12/22 06:14:08;;;;;;;20.13;13.47;;;-5.10;99.90;;;;;;5030450;28;20215;-77
2021/12/22 06:16:34;;;;;;;22.13;13.40;;;-5.10;99.90;;;;;;5030601;28;20208;-77
2021/12/22 06:19:04;;;;;;;28.17;13.73;;;-5.00;99.90;;;;;;5030559;28;20768;-76
2021/12/22 06:21:31;;;;;;;23.40;14.32;;;-5.10;99.90;;;;;;5031735;28;20218;-76
2021/12/22 06:23:57;;;;;;;26.63;13.98;;;-5.00;99.90;;;;;;5030139;28;20574;-77
2021/12/22 06:26:23;;;;;;;26.98;13.80;;;-5.00;99.90;;;;;;5031535;28;20242;-76
2021/12/22 06:28:50;;;;;;;22.40;13.68;;;-5.00;99.90;;;;;;5031847;28;20204;-76
2021/12/22 06:31:15;;;;;;;22.58;14.07;;;-5.20;99.90;;;;;;5029985;28;20188;-77
2021/12/22 06:33:41;;;;;;;23.97;13.93;;;-5.20;99.90;;;;;;5031051;28;20279;-77
2021/12/22 06:36:10;;;;;;;23.87;14.17;;;-5.40;99.90;;;;;;5028016;28;20490;-76
2021/12/22 06:38:36;;;;;;;28.10;15.95;;;-5.50;99.90;;;;;;5029133;28;20726;-77
2021/12/22 06:41:03;;;;;;;25.00;15.27;;;-5.50;99.90;;;;;;5029246;28;20180;-76
2021/12/22 06:43:32;;;;;;;31.98;17.70;;;-5.40;99.90;;;;;;5029137;28;20185;-76
2021/12/22 06:45:58;;;;;;;37.35;18.35;;;-5.40;99.90;;;;;;5028982;28;20188;-77
2021/12/22 06:48:24;;;;;;;33.53;19.07;;;-5.40;99.90;;;;;;5027390;28;20670;-77
2021/12/22 06:50:49;;;;;;;22.93;13.67;;;-5.50;99.90;;;;;;5028942;28;20528;-76
2021/12/22 06:53:15;;;;;;;21.53;12.60;;;-5.50;99.90;;;;;;5027543;28;20489;-76
2021/12/22 06:55:41;;;;;;;32.47;15.30;;;-5.50;99.90;;;;;;5027584;28;20193;-76
2021/12/22 06:58:06;;;;;;;21.40;13.47;;;-5.50;99.90;;;;;;5028826;28;20231;-77
2021/12/22 07:00:35;;;;;;;26.23;13.80;;;-5.50;99.90;;;;;;5028929;28;20211;-76
2021/12/22 07:03:01;;;;;;;24.83;12.95;;;-5.50;99.90;;;;;;5028803;28;20188;-77
2021/12/22 07:05:27;;;;;;;25.00;13.63;;;-5.60;99.90;;;;;;5027119;28;20276;-77
2021/12/22 07:07:53;;;;;;;21.37;12.73;;;-5.50;99.90;;;;;;5028477;28;20284;-77
2021/12/22 07:10:19;;;;;;;18.80;11.73;;;-5.50;99.90;;;;;;5010803;28;20192;-76
2021/12/22 07:12:46;;;;;;;21.57;12.63;;;-5.40;99.90;;;;;;5027625;28;20658;-78
2021/12/22 07:15:14;;;;;;;25.67;14.48;;;-5.30;99.90;;;;;;5028566;28;20419;-77
2021/12/22 07:17:45;;;;;;;27.55;13.85;;;-5.10;99.90;;;;;;5026899;28;20302;-78
2021/12/22 07:20:12;;;;;;;26.27;13.05;;;-5.00;99.90;;;;;;5028330;28;20195;-78
2021/12/22 07:22:38;;;;;;;20.75;12.73;;;-4.90;99.90;;;;;;5028627;28;20183;-77
2021/12/22 07:25:05;;;;;;;23.90;14.33;;;-4.90;99.90;;;;;;5028479;28;20184;-78
2021/12/22 07:27:31;;;;;;;25.70;13.63;;;-4.80;99.90;;;;;;5026428;28;20446;-77
2021/12/22 07:29:57;;;;;;;25.53;14.03;;;-4.80;99.90;;;;;;5028375;28;20189;-77
2021/12/22 07:32:23;;;;;;;24.17;13.47;;;-4.70;99.90;;;;;;5028573;28;20195;-78
2021/12/22 07:35:03;;;;;;;23.88;14.93;;;-4.40;99.90;;;;;;5028820;28;20191;-78
2021/12/22 07:37:56;;;;;;;23.55;13.50;;;-4.30;99.90;;;;;;5027267;28;20215;-77
2021/12/22 07:40:22;;;;;;;25.00;13.13;;;-4.20;99.90;;;;;;5027342;28;20176;-77
2021/12/22 07:42:47;;;;;;;21.90;13.70;;;-4.10;99.90;;;;;;5028808;28;20530;-77
2021/12/22 07:45:13;;;;;;;28.10;15.13;;;-4.10;99.90;;;;;;5027343;28;20812;-76
2021/12/22 07:47:39;;;;;;;21.93;12.67;;;-4.00;99.90;;;;;;5028650;28;20286;-77
2021/12/22 07:50:07;;;;;;;24.50;13.63;;;-4.00;99.90;;;;;;5028410;28;20181;-78
2021/12/22 07:52:32;;;;;;;20.75;13.10;;;-3.80;99.90;;;;;;5027259;28;20199;-77
2021/12/22 07:54:58;;;;;;;22.40;13.10;;;-3.80;99.90;;;;;;5028397;28;20184;-77
2021/12/22 07:57:24;;;;;;;26.85;15.73;;;-3.70;99.90;;;;;;5028663;28;20295;-78
2021/12/22 07:59:50;;;;;;;52.97;28.67;;;-3.70;99.90;;;;;;5028675;28;20713;-77
2021/12/22 08:02:16;;;;;;;51.53;29.33;;;-3.90;99.90;;;;;;5027233;28;20759;-78
2021/12/22 08:04:42;;;;;;;48.93;26.03;;;-3.90;99.90;;;;;;5027227;28;20420;-78
2021/12/22 08:07:08;;;;;;;54.30;28.23;;;-3.70;99.90;;;;;;5026939;28;20295;-77
2021/12/22 08:09:34;;;;;;;52.40;27.90;;;-2.80;99.90;;;;;;5028558;28;20737;-77
2021/12/22 08:12:04;;;;;;;43.10;22.27;;;-1.60;99.90;;;;;;5028499;28;20921;-78
2021/12/22 08:14:39;;;;;;;34.92;19.95;;;-0.60;99.90;;;;;;5029122;28;20165;-77
2021/12/22 08:17:06;;;;;;;30.15;18.65;;;0.40;99.90;;;;;;5029806;28;20225;-77
2021/12/22 08:19:32;;;;;;;32.25;20.02;;;1.10;99.90;;;;;;5026913;28;20193;-77
2021/12/22 08:21:57;;;;;;;32.90;20.83;;;2.00;99.90;;;;;;5027894;28;20185;-78
2021/12/22 08:24:24;;;;;;;37.77;24.03;;;2.90;99.50;;;;;;5029940;28;20928;-79
2021/12/22 08:26:50;;;;;;;50.63;30.40;;;3.60;96.10;;;;;;5030106;28;20209;-79
2021/12/22 08:29:15;;;;;;;41.67;26.43;;;4.20;93.00;;;;;;5028607;28;20187;-79
2021/12/22 08:31:41;;;;;;;31.00;22.37;;;4.70;92.60;;;;;;5030121;28;20780;-79
2021/12/22 08:34:09;;;;;;;32.93;21.43;;;4.70;91.10;;;;;;5028684;28;20199;-79
2021/12/22 08:39:20;;;;;;;27.50;20.13;;;5.00;87.90;;;;;;5030055;28;21006;-79
2021/12/22 08:41:47;;;;;;;45.03;28.80;;;5.20;87.50;;;;;;5029049;28;20417;-80
2021/12/22 08:44:16;;;;;;;68.10;42.00;;;5.70;85.80;;;;;;5028677;28;20476;-77
2021/12/22 08:46:46;;;;;;;72.93;47.90;;;5.90;83.40;;;;;;5030019;28;20423;-80
2021/12/22 08:49:13;;;;;;;61.83;40.20;;;6.00;83.50;;;;;;5028611;28;20543;-80
2021/12/22 08:51:38;;;;;;;50.07;31.87;;;6.20;81.90;;;;;;5028059;28;20459;-80
2021/12/22 08:54:04;;;;;;;35.73;24.83;;;6.40;80.80;;;;;;5028353;28;20471;-79
2021/12/22 08:56:30;;;;;;;33.83;24.40;;;7.10;78.30;;;;;;5030166;28;20200;-80
2021/12/22 08:58:57;;;;;;;38.63;25.20;;;7.00;74.60;;;;;;5030178;28;20892;-78
2021/12/22 09:01:24;;;;;;;36.40;25.67;;;6.20;75.60;;;;;;5028161;28;20419;-78
2021/12/22 09:03:50;;;;;;;36.80;26.30;;;5.00;79.30;;;;;;5028158;28;21048;-80
2021/12/22 09:06:16;;;;;;;36.30;25.37;;;4.00;87.70;;;;;;5028002;28;21092;-78
2021/12/22 09:08:43;;;;;;;32.77;22.60;;;3.10;91.20;;;;;;5028042;28;20991;-79
2021/12/22 09:11:09;;;;;;;32.40;22.23;;;2.40;93.50;;;;;;5027455;28;20426;-79
2021/12/22 09:13:38;;;;;;;35.90;23.93;;;1.90;95.40;;;;;;5027623;28;20430;-78
2021/12/22 09:16:05;;;;;;;53.37;30.60;;;1.30;97.40;;;;;;5011489;28;20479;-78
2021/12/22 09:18:31;;;;;;;60.40;32.60;;;0.90;98.60;;;;;;5026802;28;20937;-80
2021/12/22 09:20:57;;;;;;;53.20;30.67;;;0.50;99.90;;;;;;5028372;28;20477;-79
2021/12/22 09:23:23;;;;;;;64.27;34.17;;;0.40;99.90;;;;;;5027701;28;20188;-76
2021/12/22 09:25:49;;;;;;;50.27;29.07;;;0.20;99.90;;;;;;5011935;28;20971;-78
2021/12/22 09:28:15;;;;;;;44.33;25.92;;;0.10;99.90;;;;;;5030721;28;20197;-78
2021/12/22 09:30:43;;;;;;;42.53;23.30;;;0.60;99.90;;;;;;5029932;28;20208;-79
2021/12/22 09:33:11;;;;;;;36.33;22.03;;;1.60;99.90;;;;;;5030176;28;20425;-78
2021/12/22 09:35:38;;;;;;;44.60;23.40;;;3.50;97.60;;;;;;5030076;28;20423;-78
2021/12/22 09:38:08;;;;;;;40.73;21.90;;;5.20;93.40;;;;;;5031357;28;20471;-78
2021/12/22 09:40:35;;;;;;;37.73;23.20;;;6.20;86.30;;;;;;5032025;28;20427;-78
2021/12/22 09:43:01;;;;;;;28.03;19.37;;;7.00;81.80;;;;;;5030159;28;20422;-78
2021/12/22 09:45:26;;;;;;;32.70;22.97;;;8.00;81.20;;;;;;5029300;28;20430;-78
2021/12/22 09:53:13;;;;;;;28.90;22.97;;;11.20;63.70;;;;;;5033482;28;20432;-77
2021/12/22 09:55:39;;;;;;;35.47;24.70;;;11.80;60.50;;;;;;5033220;28;20414;-76
2021/12/22 09:58:05;;;;;;;35.50;26.37;;;12.30;57.80;;;;;;5033151;28;20442;-77
2021/12/22 10:00:33;;;;;;;31.13;23.97;;;12.80;56.00;;;;;;5032725;28;20429;-77
2021/12/22 10:02:59;;;;;;;30.63;22.30;;;13.50;54.10;;;;;;5032467;28;20206;-76
2021/12/22 10:05:25;;;;;;;23.17;18.40;;;13.70;52.70;;;;;;5032120;28;20462;-80
2021/12/22 10:08:26;;;;;;;24.57;19.60;;;13.80;50.50;;;;;;5030877;28;20219;-78
2021/12/22 10:11:06;;;;;;;26.57;19.17;;;14.30;49.80;;;;;;5028818;28;20192;-76
2021/12/22 10:13:33;;;;;;;24.90;21.47;;;14.40;49.40;;;;;;5031746;28;20879;-78
2021/12/22 10:16:08;;;;;;;22.73;19.10;;;14.40;48.30;;;;;;5031392;28;20466;-77
2021/12/22 10:18:34;;;;;;;28.13;22.63;;;14.90;47.20;;;;;;5034839;28;20446;-78
2021/12/22 10:21:21;;;;;;;26.20;22.00;;;14.70;46.80;;;;;;5030061;28;20471;-78
2021/12/22 10:23:50;;;;;;;23.07;19.87;;;14.80;46.10;;;;;;5031792;28;20454;-78
2021/12/22 10:26:19;;;;;;;25.50;20.40;;;14.90;45.50;;;;;;5013404;28;20431;-78
2021/12/22 10:28:52;;;;;;;23.77;21.03;;;15.20;45.80;;;;;;5029928;28;20458;-78
2021/12/22 10:31:21;;;;;;;25.53;21.87;;;15.30;46.00;;;;;;5031201;28;20816;-77
2021/12/22 10:33:51;;;;;;;20.93;18.70;;;15.50;45.30;;;;;;5030015;28;20443;-76
2021/12/22 10:36:21;;;;;;;22.30;19.67;;;15.40;44.40;;;;;;5029617;28;20471;-77
2021/12/22 10:39:00;;;;;;;22.73;20.20;;;15.40;44.30;;;;;;5030167;28;21058;-77
2021/12/22 10:41:31;;;;;;;23.80;21.23;;;15.50;44.50;;;;;;5029098;28;20430;-78
2021/12/22 10:43:58;;;;;;;27.60;22.87;;;15.40;44.20;;;;;;5029055;28;20430;-78
2021/12/22 10:46:31;;;;;;;25.50;22.13;;;15.60;44.00;;;;;;5028814;28;20429;-77
2021/12/22 10:49:20;;;;;;;27.03;22.80;;;15.20;43.90;;;;;;5030667;28;20416;-78
2021/12/22 10:52:01;;;;;;;27.20;23.90;;;14.50;44.30;;;;;;5029982;28;20446;-77
2021/12/22 10:54:39;;;;;;;27.50;21.90;;;15.30;44.70;;;;;;5030519;28;20422;-78
2021/12/22 10:57:12;;;;;;;24.13;20.87;;;15.60;44.00;;;;;;5029842;28;21208;-77
2021/12/22 10:59:52;;;;;;;34.90;24.60;;;15.60;43.80;;;;;;5030349;28;20451;-76
2021/12/22 11:02:25;;;;;;;28.27;25.23;;;14.90;43.30;;;;;;5033864;28;20451;-78
2021/12/22 11:04:50;;;;;;;26.40;23.10;;;15.10;43.90;;;;;;5038262;28;20857;-77
2021/12/22 11:07:24;;;;;;;29.00;23.83;;;15.50;43.80;;;;;;5031095;28;20533;-79
2021/12/22 11:09:50;;;;;;;24.03;21.07;;;15.40;43.30;;;;;;5027954;28;20246;-79
2021/12/22 11:12:17;;;;;;;22.37;19.37;;;15.00;43.60;;;;;;5029335;28;20423;-79
2021/12/22 11:14:47;;;;;;;22.67;19.03;;;15.30;42.90;;;;;;5027748;28;20420;-78
2021/12/22 11:17:19;;;;;;;24.13;18.80;;;15.50;43.10;;;;;;5028876;28;20828;-77
2021/12/22 11:19:57;;;;;;;23.83;19.70;;;14.80;42.60;;;;;;5029019;28;20453;-78
2021/12/22 11:22:50;;;;;;;26.43;22.30;;;15.10;42.80;;;;;;5028881;28;20422;-77
2021/12/22 11:25:16;;;;;;;22.80;20.00;;;14.90;43.30;;;;;;5027720;28;20426;-78
2021/12/22 11:27:42;;;;;;;23.03;18.13;;;14.40;42.90;;;;;;5027368;28;20485;-77
2021/12/22 11:30:08;;;;;;;19.43;17.33;;;13.30;42.80;;;;;;5029789;28;20477;-78
2021/12/22 11:32:34;;;;;;;19.77;17.53;;;13.00;44.20;;;;;;5029345;28;20429;-78
2021/12/22 11:35:03;;;;;;;21.70;17.90;;;13.00;46.30;;;;;;5027858;28;20930;-78
2021/12/22 11:37:29;;;;;;;26.97;20.10;;;13.20;45.40;;;;;;5027337;28;20716;-78
2021/12/22 11:39:57;;;;;;;23.63;19.70;;;12.70;44.90;;;;;;5028855;28;20422;-77
2021/12/22 11:42:27;;;;;;;24.17;17.63;;;12.40;46.40;;;;;;5027143;28;20424;-78
2021/12/22 11:44:57;;;;;;;30.07;18.93;;;12.90;46.80;;;;;;5027256;28;20449;-78
2021/12/22 11:47:23;;;;;;;25.07;17.57;;;12.80;46.30;;;;;;5028735;28;20535;-78
2021/12/22 11:49:57;;;;;;;24.47;18.47;;;12.80;46.30;;;;;;5028824;28;20874;-78
2021/12/22 11:52:31;;;;;;;25.60;20.47;;;12.80;46.10;;;;;;5027237;28;20443;-77
2021/12/22 11:55:11;;;;;;;24.43;19.60;;;12.40;46.40;;;;;;5028863;28;20416;-78
2021/12/22 11:57:41;;;;;;;29.40;21.67;;;12.40;47.00;;;;;;5028570;28;20975;-78
2021/12/22 12:00:28;;;;;;;26.33;20.10;;;12.20;47.60;;;;;;5026965;28;20447;-78
2021/12/22 12:02:56;;;;;;;25.43;19.70;;;11.40;48.20;;;;;;5027272;28;20482;-75
2021/12/22 12:05:30;;;;;;;31.50;19.97;;;11.30;49.30;;;;;;5028572;28;20416;-78
2021/12/22 12:08:14;;;;;;;24.83;19.10;;;10.10;51.30;;;;;;5027881;28;21294;-78
2021/12/22 12:10:50;;;;;;;24.57;18.20;;;9.60;53.60;;;;;;5028450;28;20848;-78
2021/12/22 12:13:26;;;;;;;35.00;19.67;;;8.80;56.80;;;;;;5028175;28;20434;-77
2021/12/22 12:22:11;;;;;;;42.37;30.90;;;6.30;69.40;;;;;;5029004;28;20411;-78
2021/12/22 12:24:56;;;;;;;32.93;25.37;;;5.80;74.80;;;;;;5011700;28;20441;-78
2021/12/22 12:27:36;;;;;;;28.10;21.00;;;5.40;78.60;;;;;;5028756;28;21055;-78
2021/12/22 12:30:01;;;;;;;25.50;19.10;;;5.00;81.50;;;;;;5027451;28;20426;-77
2021/12/22 12:32:39;;;;;;;26.47;18.40;;;4.60;83.40;;;;;;5026949;28;20443;-78
2021/12/22 12:35:28;;;;;;;30.27;19.63;;;4.40;87.20;;;;;;5026395;28;20180;-78
2021/12/22 12:38:07;;;;;;;28.07;19.20;;;3.90;90.60;;;;;;5028249;28;20464;-79
2021/12/22 12:40:58;;;;;;;28.43;19.13;;;3.60;91.40;;;;;;5026469;28;20966;-77
2021/12/22 12:43:45;;;;;;;29.73;20.10;;;3.50;92.50;;;;;;5027744;28;20415;-78
2021/12/22 12:49:14;;;;;;;29.80;19.43;;;3.40;93.10;;;;;;5032088;28;20422;-78
2021/12/22 12:51:44;;;;;;;29.83;19.30;;;3.20;94.50;;;;;;5028110;28;20484;-78
2021/12/22 12:54:21;;;;;;;25.40;17.43;;;3.00;95.10;;;;;;5028308;28;20598;-79
2021/12/22 12:56:48;;;;;;;29.13;19.35;;;3.00;95.90;;;;;;5028350;28;21158;-79
2021/12/22 12:59:19;;;;;;;25.83;17.70;;;3.00;96.60;;;;;;5026724;28;20187;-78
2021/12/22 13:01:47;;;;;;;29.13;19.40;;;3.10;96.70;;;;;;5027144;28;20511;-78